sensor_id;sensor_type;location;lat;lon;timestamp;P1;durP1;ratioP1;P2;durP2;ratioP2
22248;SDS011;67538;52.180;5.646;2023-03-05T00:00:08;12.00;;;4.13;;
22248;SDS011;67538;52.180;5.646;2023-03-05T00:02:36;16.98;;;4.40;;
22248;SDS011;67538;52.180;5.646;2023-03-05T00:05:05;12.98;;;4.68;;
22248;SDS011;67538;52.180;5.646;2023-03-05T00:07:33;14.25;;;4.10;;
22248;SDS011;67538;52.180;5.646;2023-03-05T00:10:00;13.23;;;4.10;;
22248;SDS011;67538;52.180;5.646;2023-03-05T00:12:29;16.02;;;4.55;;
22248;SDS011;67538;52.180;5.646;2023-03-05T00:14:56;15.10;;;3.90;;
22248;SDS011;67538;52.180;5.646;2023-03-05T00:17:23;13.82;;;3.85;;
22248;SDS011;67538;52.180;5.646;2023-03-05T00:19:50;15.15;;;4.30;;
22248;SDS011;67538;52.180;5.646;2023-03-05T00:22:18;14.80;;;4.70;;
22248;SDS011;67538;52.180;5.646;2023-03-05T00:24:45;17.38;;;4.38;;
22248;SDS011;67538;52.180;5.646;2023-03-05T00:27:16;14.10;;;4.18;;
22248;SDS011;67538;52.180;5.646;2023-03-05T00:29:43;17.27;;;4.80;;
22248;SDS011;67538;52.180;5.646;2023-03-05T00:32:10;18.85;;;4.47;;
22248;SDS011;67538;52.180;5.646;2023-03-05T00:34:37;11.83;;;4.17;;
22248;SDS011;67538;52.180;5.646;2023-03-05T00:37:04;17.55;;;4.63;;
22248;SDS011;67538;52.180;5.646;2023-03-05T00:39:33;13.73;;;4.30;;
22248;SDS011;67538;52.180;5.646;2023-03-05T00:42:00;14.82;;;4.05;;
22248;SDS011;67538;52.180;5.646;2023-03-05T00:44:27;16.50;;;4.55;;
22248;SDS011;67538;52.180;5.646;2023-03-05T00:46:54;12.40;;;4.10;;
22248;SDS011;67538;52.180;5.646;2023-03-05T00:49:21;14.70;;;4.03;;
22248;SDS011;67538;52.180;5.646;2023-03-05T00:51:48;17.30;;;4.70;;
22248;SDS011;67538;52.180;5.646;2023-03-05T00:54:15;12.77;;;4.60;;
22248;SDS011;67538;52.180;5.646;2023-03-05T00:56:43;14.68;;;4.30;;
22248;SDS011;67538;52.180;5.646;2023-03-05T00:59:11;15.77;;;4.70;;
22248;SDS011;67538;52.180;5.646;2023-03-05T01:01:38;17.10;;;4.85;;
22248;SDS011;67538;52.180;5.646;2023-03-05T01:04:05;14.75;;;4.22;;
22248;SDS011;67538;52.180;5.646;2023-03-05T01:06:32;11.00;;;4.13;;
22248;SDS011;67538;52.180;5.646;2023-03-05T01:08:59;14.63;;;4.30;;
22248;SDS011;67538;52.180;5.646;2023-03-05T01:11:26;14.15;;;4.30;;
22248;SDS011;67538;52.180;5.646;2023-03-05T01:13:55;14.20;;;3.97;;
22248;SDS011;67538;52.180;5.646;2023-03-05T01:16:22;19.40;;;4.38;;
22248;SDS011;67538;52.180;5.646;2023-03-05T01:18:49;13.40;;;4.63;;
22248;SDS011;67538;52.180;5.646;2023-03-05T01:21:16;20.05;;;4.78;;
22248;SDS011;67538;52.180;5.646;2023-03-05T01:23:43;12.13;;;3.75;;
22248;SDS011;67538;52.180;5.646;2023-03-05T01:26:10;16.98;;;4.13;;
22248;SDS011;67538;52.180;5.646;2023-03-05T01:28:37;15.80;;;4.43;;
22248;SDS011;67538;52.180;5.646;2023-03-05T01:31:09;13.02;;;3.85;;
22248;SDS011;67538;52.180;5.646;2023-03-05T01:33:36;16.30;;;4.33;;
22248;SDS011;67538;52.180;5.646;2023-03-05T01:36:05;13.70;;;4.00;;
22248;SDS011;67538;52.180;5.646;2023-03-05T01:38:35;17.40;;;4.53;;
22248;SDS011;67538;52.180;5.646;2023-03-05T01:41:02;16.48;;;4.60;;
22248;SDS011;67538;52.180;5.646;2023-03-05T01:43:30;11.77;;;4.10;;
22248;SDS011;67538;52.180;5.646;2023-03-05T01:49:10;15.13;;;4.50;;
22248;SDS011;67538;52.180;5.646;2023-03-05T01:51:44;15.18;;;3.83;;
22248;SDS011;67538;52.180;5.646;2023-03-05T01:54:35;11.63;;;4.20;;
22248;SDS011;67538;52.180;5.646;2023-03-05T01:57:06;15.95;;;4.45;;
22248;SDS011;67538;52.180;5.646;2023-03-05T01:59:36;17.08;;;4.70;;
22248;SDS011;67538;52.180;5.646;2023-03-05T02:02:04;12.48;;;4.82;;
22248;SDS011;67538;52.180;5.646;2023-03-05T02:04:35;14.53;;;4.60;;
22248;SDS011;67538;52.180;5.646;2023-03-05T02:07:06;13.45;;;4.70;;
22248;SDS011;67538;52.180;5.646;2023-03-05T02:09:36;17.23;;;5.20;;
22248;SDS011;67538;52.180;5.646;2023-03-05T02:12:04;16.35;;;4.85;;
22248;SDS011;67538;52.180;5.646;2023-03-05T02:14:31;20.70;;;6.15;;
22248;SDS011;67538;52.180;5.646;2023-03-05T02:16:59;16.55;;;5.18;;
22248;SDS011;67538;52.180;5.646;2023-03-05T02:19:26;19.10;;;5.85;;
22248;SDS011;67538;52.180;5.646;2023-03-05T02:21:55;20.58;;;5.28;;
22248;SDS011;67538;52.180;5.646;2023-03-05T02:24:32;15.13;;;5.15;;
22248;SDS011;67538;52.180;5.646;2023-03-05T02:27:02;17.08;;;5.18;;
22248;SDS011;67538;52.180;5.646;2023-03-05T02:29:30;20.40;;;5.60;;
22248;SDS011;67538;52.180;5.646;2023-03-05T02:31:58;17.60;;;4.97;;
22248;SDS011;67538;52.180;5.646;2023-03-05T02:34:25;14.15;;;5.07;;
22248;SDS011;67538;52.180;5.646;2023-03-05T02:36:52;16.65;;;5.57;;
22248;SDS011;67538;52.180;5.646;2023-03-05T02:39:21;16.00;;;5.15;;
22248;SDS011;67538;52.180;5.646;2023-03-05T02:41:48;13.85;;;4.80;;
22248;SDS011;67538;52.180;5.646;2023-03-05T02:44:15;14.45;;;5.07;;
22248;SDS011;67538;52.180;5.646;2023-03-05T02:46:42;16.87;;;5.13;;
22248;SDS011;67538;52.180;5.646;2023-03-05T02:49:09;10.30;;;4.45;;
22248;SDS011;67538;52.180;5.646;2023-03-05T02:51:36;14.85;;;4.65;;
22248;SDS011;67538;52.180;5.646;2023-03-05T02:54:05;11.13;;;4.63;;
22248;SDS011;67538;52.180;5.646;2023-03-05T02:56:32;17.95;;;4.93;;
22248;SDS011;67538;52.180;5.646;2023-03-05T02:58:59;12.32;;;4.25;;
22248;SDS011;67538;52.180;5.646;2023-03-05T03:01:26;14.63;;;4.75;;
22248;SDS011;67538;52.180;5.646;2023-03-05T03:03:53;15.38;;;5.15;;
22248;SDS011;67538;52.180;5.646;2023-03-05T03:06:20;15.55;;;4.55;;
22248;SDS011;67538;52.180;5.646;2023-03-05T03:08:48;12.02;;;4.50;;
22248;SDS011;67538;52.180;5.646;2023-03-05T03:11:16;12.93;;;4.82;;
22248;SDS011;67538;52.180;5.646;2023-03-05T03:13:44;13.48;;;4.22;;
22248;SDS011;67538;52.180;5.646;2023-03-05T03:16:12;12.07;;;4.20;;
22248;SDS011;67538;52.180;5.646;2023-03-05T03:18:40;14.05;;;4.63;;
22248;SDS011;67538;52.180;5.646;2023-03-05T03:21:14;15.38;;;4.78;;
22248;SDS011;67538;52.180;5.646;2023-03-05T03:23:42;11.27;;;4.28;;
22248;SDS011;67538;52.180;5.646;2023-03-05T03:26:09;17.73;;;4.80;;
22248;SDS011;67538;52.180;5.646;2023-03-05T03:28:38;14.15;;;4.25;;
22248;SDS011;67538;52.180;5.646;2023-03-05T03:31:05;12.82;;;4.10;;
22248;SDS011;67538;52.180;5.646;2023-03-05T03:33:32;13.23;;;4.60;;
22248;SDS011;67538;52.180;5.646;2023-03-05T03:35:59;14.15;;;4.63;;
22248;SDS011;67538;52.180;5.646;2023-03-05T03:38:27;11.18;;;4.20;;
22248;SDS011;67538;52.180;5.646;2023-03-05T03:40:54;16.13;;;4.90;;
22248;SDS011;67538;52.180;5.646;2023-03-05T03:43:21;14.60;;;4.90;;
22248;SDS011;67538;52.180;5.646;2023-03-05T03:45:50;16.08;;;4.68;;
22248;SDS011;67538;52.180;5.646;2023-03-05T03:48:17;13.17;;;4.90;;
22248;SDS011;67538;52.180;5.646;2023-03-05T03:50:44;17.17;;;5.15;;
22248;SDS011;67538;52.180;5.646;2023-03-05T03:53:11;14.02;;;4.72;;
22248;SDS011;67538;52.180;5.646;2023-03-05T03:55:38;12.07;;;5.10;;
22248;SDS011;67538;52.180;5.646;2023-03-05T03:58:06;16.80;;;5.17;;
22248;SDS011;67538;52.180;5.646;2023-03-05T04:00:33;14.77;;;5.72;;
22248;SDS011;67538;52.180;5.646;2023-03-05T04:03:02;13.70;;;5.03;;
22248;SDS011;67538;52.180;5.646;2023-03-05T04:05:29;19.30;;;5.93;;
22248;SDS011;67538;52.180;5.646;2023-03-05T04:07:56;18.02;;;6.05;;
22248;SDS011;67538;52.180;5.646;2023-03-05T04:10:24;16.40;;;5.05;;
22248;SDS011;67538;52.180;5.646;2023-03-05T04:12:51;17.77;;;5.43;;
22248;SDS011;67538;52.180;5.646;2023-03-05T04:15:18;13.60;;;5.50;;
22248;SDS011;67538;52.180;5.646;2023-03-05T04:17:45;13.50;;;5.15;;
22248;SDS011;67538;52.180;5.646;2023-03-05T04:20:14;13.63;;;5.03;;
22248;SDS011;67538;52.180;5.646;2023-03-05T04:22:41;14.25;;;5.35;;
22248;SDS011;67538;52.180;5.646;2023-03-05T04:25:08;12.80;;;4.65;;
22248;SDS011;67538;52.180;5.646;2023-03-05T04:27:35;14.07;;;4.70;;
22248;SDS011;67538;52.180;5.646;2023-03-05T04:30:04;11.07;;;4.82;;
22248;SDS011;67538;52.180;5.646;2023-03-05T04:32:32;13.93;;;5.97;;
22248;SDS011;67538;52.180;5.646;2023-03-05T04:35:00;15.32;;;4.82;;
22248;SDS011;67538;52.180;5.646;2023-03-05T04:37:28;12.20;;;4.75;;
22248;SDS011;67538;52.180;5.646;2023-03-05T04:39:55;11.43;;;5.05;;
22248;SDS011;67538;52.180;5.646;2023-03-05T04:42:22;11.52;;;4.28;;
22248;SDS011;67538;52.180;5.646;2023-03-05T04:44:50;8.75;;;4.50;;
22248;SDS011;67538;52.180;5.646;2023-03-05T04:47:17;12.35;;;5.15;;
22248;SDS011;67538;52.180;5.646;2023-03-05T04:49:45;15.70;;;4.78;;
22248;SDS011;67538;52.180;5.646;2023-03-05T04:52:12;13.07;;;4.97;;
22248;SDS011;67538;52.180;5.646;2023-03-05T04:54:41;15.48;;;5.45;;
22248;SDS011;67538;52.180;5.646;2023-03-05T04:57:10;15.63;;;5.32;;
22248;SDS011;67538;52.180;5.646;2023-03-05T04:59:37;14.50;;;5.70;;
22248;SDS011;67538;52.180;5.646;2023-03-05T05:02:04;17.23;;;5.60;;
22248;SDS011;67538;52.180;5.646;2023-03-05T05:04:31;12.43;;;5.55;;
22248;SDS011;67538;52.180;5.646;2023-03-05T05:06:59;13.73;;;5.50;;
22248;SDS011;67538;52.180;5.646;2023-03-05T05:09:27;11.30;;;5.53;;
22248;SDS011;67538;52.180;5.646;2023-03-05T05:11:55;11.77;;;5.95;;
22248;SDS011;67538;52.180;5.646;2023-03-05T05:14:22;12.63;;;5.32;;
22248;SDS011;67538;52.180;5.646;2023-03-05T05:16:49;11.25;;;4.90;;
22248;SDS011;67538;52.180;5.646;2023-03-05T05:19:16;13.70;;;5.27;;
22248;SDS011;67538;52.180;5.646;2023-03-05T05:21:43;13.82;;;4.93;;
22248;SDS011;67538;52.180;5.646;2023-03-05T05:24:10;11.15;;;4.90;;
22248;SDS011;67538;52.180;5.646;2023-03-05T05:26:38;14.30;;;5.55;;
22248;SDS011;67538;52.180;5.646;2023-03-05T05:29:06;12.37;;;5.20;;
22248;SDS011;67538;52.180;5.646;2023-03-05T05:31:33;13.18;;;5.50;;
22248;SDS011;67538;52.180;5.646;2023-03-05T05:34:00;15.70;;;6.25;;
22248;SDS011;67538;52.180;5.646;2023-03-05T05:36:27;15.40;;;5.72;;
22248;SDS011;67538;52.180;5.646;2023-03-05T05:38:54;13.02;;;5.90;;
22248;SDS011;67538;52.180;5.646;2023-03-05T05:41:21;14.07;;;6.13;;
22248;SDS011;67538;52.180;5.646;2023-03-05T05:43:48;16.27;;;5.70;;
22248;SDS011;67538;52.180;5.646;2023-03-05T05:46:18;12.98;;;5.60;;
22248;SDS011;67538;52.180;5.646;2023-03-05T05:48:45;13.35;;;5.63;;
22248;SDS011;67538;52.180;5.646;2023-03-05T05:51:13;15.47;;;5.90;;
22248;SDS011;67538;52.180;5.646;2023-03-05T05:53:42;15.88;;;5.90;;
22248;SDS011;67538;52.180;5.646;2023-03-05T05:56:09;18.33;;;5.80;;
22248;SDS011;67538;52.180;5.646;2023-03-05T05:58:39;13.13;;;6.05;;
22248;SDS011;67538;52.180;5.646;2023-03-05T06:01:13;13.60;;;5.53;;
22248;SDS011;67538;52.180;5.646;2023-03-05T06:03:43;14.32;;;5.68;;
22248;SDS011;67538;52.180;5.646;2023-03-05T06:06:11;13.68;;;6.18;;
22248;SDS011;67538;52.180;5.646;2023-03-05T06:08:39;17.40;;;5.25;;
22248;SDS011;67538;52.180;5.646;2023-03-05T06:11:06;10.88;;;5.38;;
22248;SDS011;67538;52.180;5.646;2023-03-05T06:13:33;15.20;;;5.43;;
22248;SDS011;67538;52.180;5.646;2023-03-05T06:16:01;11.13;;;5.20;;
22248;SDS011;67538;52.180;5.646;2023-03-05T06:18:31;13.20;;;5.67;;
22248;SDS011;67538;52.180;5.646;2023-03-05T06:21:00;12.82;;;5.30;;
22248;SDS011;67538;52.180;5.646;2023-03-05T06:23:29;13.48;;;5.03;;
22248;SDS011;67538;52.180;5.646;2023-03-05T06:25:58;14.82;;;5.60;;
22248;SDS011;67538;52.180;5.646;2023-03-05T06:28:25;11.35;;;5.22;;
22248;SDS011;67538;52.180;5.646;2023-03-05T06:30:58;10.43;;;4.80;;
22248;SDS011;67538;52.180;5.646;2023-03-05T06:33:26;11.20;;;5.20;;
22248;SDS011;67538;52.180;5.646;2023-03-05T06:35:53;16.42;;;5.50;;
22248;SDS011;67538;52.180;5.646;2023-03-05T06:38:22;11.63;;;4.82;;
22248;SDS011;67538;52.180;5.646;2023-03-05T06:40:49;13.95;;;5.47;;
22248;SDS011;67538;52.180;5.646;2023-03-05T06:43:17;12.23;;;5.50;;
22248;SDS011;67538;52.180;5.646;2023-03-05T06:45:44;11.75;;;4.85;;
22248;SDS011;67538;52.180;5.646;2023-03-05T06:48:11;11.95;;;5.43;;
22248;SDS011;67538;52.180;5.646;2023-03-05T06:50:38;9.20;;;5.40;;
22248;SDS011;67538;52.180;5.646;2023-03-05T06:53:05;12.77;;;5.28;;
22248;SDS011;67538;52.180;5.646;2023-03-05T06:55:35;13.53;;;5.53;;
22248;SDS011;67538;52.180;5.646;2023-03-05T06:58:05;12.65;;;5.45;;
22248;SDS011;67538;52.180;5.646;2023-03-05T07:00:32;13.68;;;5.80;;
22248;SDS011;67538;52.180;5.646;2023-03-05T07:02:59;12.35;;;5.47;;
22248;SDS011;67538;52.180;5.646;2023-03-05T07:05:27;13.10;;;6.28;;
22248;SDS011;67538;52.180;5.646;2023-03-05T07:07:54;10.25;;;5.20;;
22248;SDS011;67538;52.180;5.646;2023-03-05T07:10:21;12.50;;;5.40;;
22248;SDS011;67538;52.180;5.646;2023-03-05T07:12:49;15.48;;;6.10;;
22248;SDS011;67538;52.180;5.646;2023-03-05T07:15:16;11.77;;;5.47;;
22248;SDS011;67538;52.180;5.646;2023-03-05T07:17:43;12.05;;;5.53;;
22248;SDS011;67538;52.180;5.646;2023-03-05T07:20:11;9.90;;;5.37;;
22248;SDS011;67538;52.180;5.646;2023-03-05T07:22:38;12.88;;;5.90;;
22248;SDS011;67538;52.180;5.646;2023-03-05T07:25:05;11.13;;;5.63;;
22248;SDS011;67538;52.180;5.646;2023-03-05T07:27:33;9.23;;;5.30;;
22248;SDS011;67538;52.180;5.646;2023-03-05T07:30:03;13.85;;;6.15;;
22248;SDS011;67538;52.180;5.646;2023-03-05T07:32:31;9.65;;;5.40;;
22248;SDS011;67538;52.180;5.646;2023-03-05T07:35:00;14.27;;;5.90;;
22248;SDS011;67538;52.180;5.646;2023-03-05T07:37:28;12.23;;;5.95;;
22248;SDS011;67538;52.180;5.646;2023-03-05T07:39:55;12.83;;;5.20;;
22248;SDS011;67538;52.180;5.646;2023-03-05T07:42:22;12.73;;;6.00;;
22248;SDS011;67538;52.180;5.646;2023-03-05T07:44:49;12.45;;;6.13;;
22248;SDS011;67538;52.180;5.646;2023-03-05T07:47:17;11.50;;;5.30;;
22248;SDS011;67538;52.180;5.646;2023-03-05T07:49:44;13.55;;;5.97;;
22248;SDS011;67538;52.180;5.646;2023-03-05T07:52:12;10.80;;;5.68;;
22248;SDS011;67538;52.180;5.646;2023-03-05T07:54:39;15.27;;;5.68;;
22248;SDS011;67538;52.180;5.646;2023-03-05T07:57:06;12.27;;;5.40;;
22248;SDS011;67538;52.180;5.646;2023-03-05T07:59:34;11.18;;;5.47;;
22248;SDS011;67538;52.180;5.646;2023-03-05T08:02:01;11.40;;;5.68;;
22248;SDS011;67538;52.180;5.646;2023-03-05T08:04:29;10.02;;;4.65;;
22248;SDS011;67538;52.180;5.646;2023-03-05T08:06:56;11.35;;;4.65;;
22248;SDS011;67538;52.180;5.646;2023-03-05T08:09:23;11.57;;;4.60;;
22248;SDS011;67538;52.180;5.646;2023-03-05T08:11:50;9.20;;;4.38;;
22248;SDS011;67538;52.180;5.646;2023-03-05T08:14:18;8.60;;;3.95;;
22248;SDS011;67538;52.180;5.646;2023-03-05T08:16:45;7.65;;;4.03;;
22248;SDS011;67538;52.180;5.646;2023-03-05T08:19:14;7.22;;;3.55;;
22248;SDS011;67538;52.180;5.646;2023-03-05T08:21:43;8.60;;;3.88;;
22248;SDS011;67538;52.180;5.646;2023-03-05T08:24:10;8.35;;;4.10;;
22248;SDS011;67538;52.180;5.646;2023-03-05T08:26:38;9.98;;;4.35;;
22248;SDS011;67538;52.180;5.646;2023-03-05T08:29:06;7.25;;;3.85;;
22248;SDS011;67538;52.180;5.646;2023-03-05T08:31:34;7.05;;;3.92;;
22248;SDS011;67538;52.180;5.646;2023-03-05T08:34:02;6.27;;;4.10;;
22248;SDS011;67538;52.180;5.646;2023-03-05T08:36:30;7.17;;;3.73;;
22248;SDS011;67538;52.180;5.646;2023-03-05T08:38:59;11.68;;;4.25;;
22248;SDS011;67538;52.180;5.646;2023-03-05T08:41:26;6.57;;;4.18;;
22248;SDS011;67538;52.180;5.646;2023-03-05T08:43:53;11.40;;;4.50;;
22248;SDS011;67538;52.180;5.646;2023-03-05T08:46:20;10.38;;;4.43;;
22248;SDS011;67538;52.180;5.646;2023-03-05T08:48:48;6.22;;;3.97;;
22248;SDS011;67538;52.180;5.646;2023-03-05T08:51:16;8.00;;;4.30;;
22248;SDS011;67538;52.180;5.646;2023-03-05T08:53:47;11.43;;;4.60;;
22248;SDS011;67538;52.180;5.646;2023-03-05T08:56:16;7.32;;;3.92;;
22248;SDS011;67538;52.180;5.646;2023-03-05T08:58:43;6.13;;;3.97;;
22248;SDS011;67538;52.180;5.646;2023-03-05T09:01:12;7.90;;;4.05;;
22248;SDS011;67538;52.180;5.646;2023-03-05T09:03:39;8.05;;;4.68;;
22248;SDS011;67538;52.180;5.646;2023-03-05T09:06:07;6.43;;;3.92;;
22248;SDS011;67538;52.180;5.646;2023-03-05T09:08:36;7.45;;;3.20;;
22248;SDS011;67538;52.180;5.646;2023-03-05T09:11:04;9.18;;;3.47;;
22248;SDS011;67538;52.180;5.646;2023-03-05T09:13:34;9.67;;;3.83;;
22248;SDS011;67538;52.180;5.646;2023-03-05T09:16:02;5.73;;;3.17;;
22248;SDS011;67538;52.180;5.646;2023-03-05T09:18:31;8.45;;;3.50;;
22248;SDS011;67538;52.180;5.646;2023-03-05T09:21:02;5.88;;;3.10;;
22248;SDS011;67538;52.180;5.646;2023-03-05T09:23:30;6.15;;;3.08;;
22248;SDS011;67538;52.180;5.646;2023-03-05T09:25:57;6.82;;;3.40;;
22248;SDS011;67538;52.180;5.646;2023-03-05T09:28:24;8.20;;;3.17;;
22248;SDS011;67538;52.180;5.646;2023-03-05T09:30:52;6.07;;;3.00;;
22248;SDS011;67538;52.180;5.646;2023-03-05T09:33:19;6.82;;;3.50;;
22248;SDS011;67538;52.180;5.646;2023-03-05T09:35:46;11.23;;;3.88;;
22248;SDS011;67538;52.180;5.646;2023-03-05T09:38:13;7.68;;;3.20;;
22248;SDS011;67538;52.180;5.646;2023-03-05T09:40:45;8.90;;;3.63;;
22248;SDS011;67538;52.180;5.646;2023-03-05T09:43:20;6.80;;;3.50;;
22248;SDS011;67538;52.180;5.646;2023-03-05T09:46:00;7.27;;;3.23;;
22248;SDS011;67538;52.180;5.646;2023-03-05T09:48:45;7.65;;;3.28;;
22248;SDS011;67538;52.180;5.646;2023-03-05T09:51:16;4.75;;;2.75;;
22248;SDS011;67538;52.180;5.646;2023-03-05T09:53:48;8.00;;;3.05;;
22248;SDS011;67538;52.180;5.646;2023-03-05T09:56:23;8.50;;;3.40;;
22248;SDS011;67538;52.180;5.646;2023-03-05T09:58:53;9.82;;;3.50;;
22248;SDS011;67538;52.180;5.646;2023-03-05T10:01:25;4.45;;;2.70;;
22248;SDS011;67538;52.180;5.646;2023-03-05T10:04:00;5.55;;;2.80;;
22248;SDS011;67538;52.180;5.646;2023-03-05T10:06:35;6.68;;;3.10;;
22248;SDS011;67538;52.180;5.646;2023-03-05T10:09:11;5.57;;;2.93;;
22248;SDS011;67538;52.180;5.646;2023-03-05T10:11:44;9.27;;;3.38;;
22248;SDS011;67538;52.180;5.646;2023-03-05T10:14:18;6.80;;;2.70;;
22248;SDS011;67538;52.180;5.646;2023-03-05T10:23:25;8.00;;;2.60;;
22248;SDS011;67538;52.180;5.646;2023-03-05T10:26:07;3.50;;;2.55;;
22248;SDS011;67538;52.180;5.646;2023-03-05T10:28:42;7.60;;;2.65;;
22248;SDS011;67538;52.180;5.646;2023-03-05T10:31:19;5.05;;;2.60;;
22248;SDS011;67538;52.180;5.646;2023-03-05T10:34:30;7.80;;;3.10;;
22248;SDS011;67538;52.180;5.646;2023-03-05T10:37:30;6.68;;;2.70;;
22248;SDS011;67538;52.180;5.646;2023-03-05T10:40:13;5.88;;;2.67;;
22248;SDS011;67538;52.180;5.646;2023-03-05T10:42:51;6.22;;;2.67;;
22248;SDS011;67538;52.180;5.646;2023-03-05T10:45:25;5.38;;;2.50;;
22248;SDS011;67538;52.180;5.646;2023-03-05T10:47:56;6.20;;;2.40;;
22248;SDS011;67538;52.180;5.646;2023-03-05T10:50:28;6.47;;;2.40;;
22248;SDS011;67538;52.180;5.646;2023-03-05T10:53:05;5.20;;;2.20;;
22248;SDS011;67538;52.180;5.646;2023-03-05T10:55:39;7.45;;;2.53;;
22248;SDS011;67538;52.180;5.646;2023-03-05T10:58:13;6.50;;;2.57;;
22248;SDS011;67538;52.180;5.646;2023-03-05T11:00:56;8.80;;;2.55;;
22248;SDS011;67538;52.180;5.646;2023-03-05T11:06:15;6.88;;;2.17;;
22248;SDS011;67538;52.180;5.646;2023-03-05T11:08:55;5.72;;;2.30;;
22248;SDS011;67538;52.180;5.646;2023-03-05T11:11:39;6.90;;;2.17;;
22248;SDS011;67538;52.180;5.646;2023-03-05T11:14:08;5.95;;;2.30;;
22248;SDS011;67538;52.180;5.646;2023-03-05T11:16:54;5.18;;;2.25;;
22248;SDS011;67538;52.180;5.646;2023-03-05T11:19:24;4.82;;;2.47;;
22248;SDS011;67538;52.180;5.646;2023-03-05T11:22:06;6.40;;;2.75;;
22248;SDS011;67538;52.180;5.646;2023-03-05T11:24:41;8.10;;;2.33;;
22248;SDS011;67538;52.180;5.646;2023-03-05T11:27:25;6.55;;;2.17;;
22248;SDS011;67538;52.180;5.646;2023-03-05T11:29:58;3.80;;;2.00;;
22248;SDS011;67538;52.180;5.646;2023-03-05T11:32:26;5.00;;;2.10;;
22248;SDS011;67538;52.180;5.646;2023-03-05T11:34:55;4.32;;;2.30;;
22248;SDS011;67538;52.180;5.646;2023-03-05T11:37:23;7.43;;;2.50;;
22248;SDS011;67538;52.180;5.646;2023-03-05T11:40:15;5.63;;;2.10;;
22248;SDS011;67538;52.180;5.646;2023-03-05T11:42:45;6.05;;;2.80;;
22248;SDS011;67538;52.180;5.646;2023-03-05T11:45:19;6.37;;;2.13;;
22248;SDS011;67538;52.180;5.646;2023-03-05T11:47:48;6.20;;;2.15;;
22248;SDS011;67538;52.180;5.646;2023-03-05T11:50:19;5.15;;;2.30;;
22248;SDS011;67538;52.180;5.646;2023-03-05T11:52:47;4.70;;;2.20;;
22248;SDS011;67538;52.180;5.646;2023-03-05T11:55:18;3.88;;;2.00;;
22248;SDS011;67538;52.180;5.646;2023-03-05T11:57:48;4.95;;;2.17;;
22248;SDS011;67538;52.180;5.646;2023-03-05T12:00:23;8.23;;;2.35;;
22248;SDS011;67538;52.180;5.646;2023-03-05T12:02:55;3.30;;;2.15;;
22248;SDS011;67538;52.180;5.646;2023-03-05T12:05:25;3.65;;;1.98;;
22248;SDS011;67538;52.180;5.646;2023-03-05T12:07:54;3.38;;;2.10;;
22248;SDS011;67538;52.180;5.646;2023-03-05T12:10:26;5.82;;;2.40;;
22248;SDS011;67538;52.180;5.646;2023-03-05T12:12:55;6.97;;;2.30;;
22248;SDS011;67538;52.180;5.646;2023-03-05T12:18:21;5.30;;;2.20;;
22248;SDS011;67538;52.180;5.646;2023-03-05T12:20:58;6.60;;;2.30;;
22248;SDS011;67538;52.180;5.646;2023-03-05T12:23:31;6.00;;;2.30;;
22248;SDS011;67538;52.180;5.646;2023-03-05T12:26:12;5.40;;;2.10;;
22248;SDS011;67538;52.180;5.646;2023-03-05T12:28:52;4.20;;;2.13;;
22248;SDS011;67538;52.180;5.646;2023-03-05T12:31:26;6.25;;;2.20;;
22248;SDS011;67538;52.180;5.646;2023-03-05T12:33:59;8.27;;;2.45;;
22248;SDS011;67538;52.180;5.646;2023-03-05T12:40:21;3.42;;;2.22;;
22248;SDS011;67538;52.180;5.646;2023-03-05T12:42:58;3.78;;;1.80;;
22248;SDS011;67538;52.180;5.646;2023-03-05T12:45:31;4.50;;;1.90;;
22248;SDS011;67538;52.180;5.646;2023-03-05T12:51:04;3.60;;;2.10;;
22248;SDS011;67538;52.180;5.646;2023-03-05T12:53:31;3.47;;;2.00;;
22248;SDS011;67538;52.180;5.646;2023-03-05T12:55:59;3.38;;;1.98;;
22248;SDS011;67538;52.180;5.646;2023-03-05T12:58:38;3.03;;;1.90;;
22248;SDS011;67538;52.180;5.646;2023-03-05T13:01:13;3.80;;;1.70;;
22248;SDS011;67538;52.180;5.646;2023-03-05T13:03:49;3.65;;;1.70;;
22248;SDS011;67538;52.180;5.646;2023-03-05T13:06:24;4.30;;;1.85;;
22248;SDS011;67538;52.180;5.646;2023-03-05T13:08:57;3.97;;;1.88;;
22248;SDS011;67538;52.180;5.646;2023-03-05T13:11:25;3.95;;;1.77;;
22248;SDS011;67538;52.180;5.646;2023-03-05T13:13:56;4.88;;;2.00;;
22248;SDS011;67538;52.180;5.646;2023-03-05T13:16:24;4.07;;;1.90;;
22248;SDS011;67538;52.180;5.646;2023-03-05T13:18:53;5.53;;;2.40;;
22248;SDS011;67538;52.180;5.646;2023-03-05T13:21:23;4.78;;;1.90;;
22248;SDS011;67538;52.180;5.646;2023-03-05T13:23:52;5.80;;;2.53;;
22248;SDS011;67538;52.180;5.646;2023-03-05T13:26:23;4.00;;;2.80;;
22248;SDS011;67538;52.180;5.646;2023-03-05T13:29:03;6.70;;;3.72;;
22248;SDS011;67538;52.180;5.646;2023-03-05T13:31:32;4.47;;;2.37;;
22248;SDS011;67538;52.180;5.646;2023-03-05T13:34:07;6.78;;;3.10;;
22248;SDS011;67538;52.180;5.646;2023-03-05T13:36:39;6.28;;;2.67;;
22248;SDS011;67538;52.180;5.646;2023-03-05T13:39:19;5.93;;;2.80;;
22248;SDS011;67538;52.180;5.646;2023-03-05T13:41:55;5.70;;;3.40;;
22248;SDS011;67538;52.180;5.646;2023-03-05T13:44:25;7.38;;;2.90;;
22248;SDS011;67538;52.180;5.646;2023-03-05T13:47:04;4.03;;;2.50;;
22248;SDS011;67538;52.180;5.646;2023-03-05T13:49:33;5.82;;;2.30;;
22248;SDS011;67538;52.180;5.646;2023-03-05T13:52:01;5.50;;;2.08;;
22248;SDS011;67538;52.180;5.646;2023-03-05T13:54:28;3.60;;;1.77;;
22248;SDS011;67538;52.180;5.646;2023-03-05T13:56:56;4.17;;;1.80;;
22248;SDS011;67538;52.180;5.646;2023-03-05T13:59:26;5.63;;;2.30;;
22248;SDS011;67538;52.180;5.646;2023-03-05T14:01:55;3.95;;;1.90;;
22248;SDS011;67538;52.180;5.646;2023-03-05T14:04:24;4.20;;;2.08;;
22248;SDS011;67538;52.180;5.646;2023-03-05T14:06:53;4.22;;;2.00;;
22248;SDS011;67538;52.180;5.646;2023-03-05T14:09:24;4.40;;;1.80;;
22248;SDS011;67538;52.180;5.646;2023-03-05T14:11:53;3.80;;;1.90;;
22248;SDS011;67538;52.180;5.646;2023-03-05T14:14:22;4.32;;;1.83;;
22248;SDS011;67538;52.180;5.646;2023-03-05T14:16:52;4.38;;;1.92;;
22248;SDS011;67538;52.180;5.646;2023-03-05T14:19:29;4.15;;;2.00;;
22248;SDS011;67538;52.180;5.646;2023-03-05T14:22:01;5.75;;;2.10;;
22248;SDS011;67538;52.180;5.646;2023-03-05T14:24:29;4.60;;;2.13;;
22248;SDS011;67538;52.180;5.646;2023-03-05T14:26:56;4.88;;;1.70;;
22248;SDS011;67538;52.180;5.646;2023-03-05T14:29:27;4.38;;;1.88;;
22248;SDS011;67538;52.180;5.646;2023-03-05T14:31:56;5.35;;;1.90;;
22248;SDS011;67538;52.180;5.646;2023-03-05T14:34:26;2.67;;;1.70;;
22248;SDS011;67538;52.180;5.646;2023-03-05T14:36:56;3.67;;;2.03;;
22248;SDS011;67538;52.180;5.646;2023-03-05T14:39:26;3.13;;;2.00;;
22248;SDS011;67538;52.180;5.646;2023-03-05T14:41:55;3.53;;;1.95;;
22248;SDS011;67538;52.180;5.646;2023-03-05T14:44:52;5.72;;;2.42;;
22248;SDS011;67538;52.180;5.646;2023-03-05T14:47:22;4.78;;;2.20;;
22248;SDS011;67538;52.180;5.646;2023-03-05T14:49:49;5.00;;;1.83;;
22248;SDS011;67538;52.180;5.646;2023-03-05T14:52:17;4.78;;;1.80;;
22248;SDS011;67538;52.180;5.646;2023-03-05T14:54:46;3.47;;;2.00;;
22248;SDS011;67538;52.180;5.646;2023-03-05T14:57:14;3.55;;;2.00;;
22248;SDS011;67538;52.180;5.646;2023-03-05T14:59:43;6.32;;;2.30;;
22248;SDS011;67538;52.180;5.646;2023-03-05T15:02:14;4.70;;;1.73;;
22248;SDS011;67538;52.180;5.646;2023-03-05T15:04:44;4.90;;;1.90;;
22248;SDS011;67538;52.180;5.646;2023-03-05T15:07:15;4.50;;;2.30;;
22248;SDS011;67538;52.180;5.646;2023-03-05T15:09:44;5.53;;;2.28;;
22248;SDS011;67538;52.180;5.646;2023-03-05T15:12:12;4.20;;;2.10;;
22248;SDS011;67538;52.180;5.646;2023-03-05T15:14:40;4.25;;;2.40;;
22248;SDS011;67538;52.180;5.646;2023-03-05T15:17:12;4.07;;;2.23;;